Terminal Aerodrome Forecast
Issued by NWS Wichita, KS

Home | Current Version | Previous Version | Graphics & Text | Print | Product List | Glossary On
Versions: 1 2 3 4 5 6 7 8 9 10 11 12 13 14 15 16 17 18 19 20 21 22
000
FTUS43 KICT 230202 AAB
TAFICT
TAF AMD
KICT 230202Z 2302/2324 17012KT 2SM BR SCT003 OVC006
     FM231500 25012KT 6SM BR OVC008
     FM231700 35023G30KT P6SM OVC015=

USA.gov is the U.S. government's official web portal to all federal, state and local government web resources and services.